createdAt,value
2023-04-19T00:01:09.406Z,100513.41
2023-04-19T00:03:36.274Z,100516.91
2023-04-19T00:06:03.102Z,100500.25
2023-04-19T00:08:32.300Z,100503.75
2023-04-19T00:11:00.314Z,100504.59
2023-04-19T00:13:26.913Z,100494.94
2023-04-19T00:15:53.558Z,100490.50
2023-04-19T00:18:20.191Z,100496.66
2023-04-19T00:20:48.784Z,100489.66
2023-04-19T00:23:15.617Z,100494.09
2023-04-19T00:25:42.428Z,100491.44
2023-04-19T00:28:10.855Z,100488.81
2023-04-19T00:30:37.504Z,100482.66
2023-04-19T00:33:04.292Z,100476.50
2023-04-19T00:35:31.013Z,100481.78
2023-04-19T00:37:57.604Z,100479.16
2023-04-19T00:40:27.592Z,100477.41
2023-04-19T00:42:54.272Z,100467.66
2023-04-19T00:45:22.891Z,100469.47
2023-04-19T00:47:52.219Z,100472.09
2023-04-19T00:50:19.141Z,100468.59
2023-04-19T00:52:45.750Z,100467.75
2023-04-19T00:55:12.434Z,100470.38
2023-04-19T00:57:39.143Z,100465.09
2023-04-19T01:00:09.759Z,100466.88
2023-04-19T01:02:36.495Z,100460.81
2023-04-19T01:05:03.604Z,100466.97
2023-04-19T01:07:30.238Z,100463.44
2023-04-19T01:09:56.936Z,100461.69
2023-04-19T01:12:24.682Z,100456.41
2023-04-19T01:14:54.112Z,100456.41
2023-04-19T01:17:21.185Z,100455.56
2023-04-19T01:19:47.842Z,100452.06
2023-04-19T01:22:25.781Z,100450.25
2023-04-19T01:24:52.422Z,100444.13
2023-04-19T01:27:19.943Z,100442.41
2023-04-19T01:29:46.532Z,100442.41
2023-04-19T01:32:13.815Z,100438.03
2023-04-19T01:34:40.562Z,100437.09
2023-04-19T01:37:07.160Z,100433.66
2023-04-19T01:39:33.721Z,100434.53
2023-04-19T01:42:00.968Z,100431.88
2023-04-19T01:44:27.605Z,100427.50
2023-04-19T01:46:55.072Z,100424.00
2023-04-19T01:49:21.861Z,100416.13
2023-04-19T01:51:48.407Z,100418.78
2023-04-19T01:54:15.239Z,100411.69
2023-04-19T01:56:44.827Z,100424.94
2023-04-19T01:59:11.537Z,100415.28
2023-04-19T02:01:38.120Z,100414.41
2023-04-19T02:04:04.887Z,100412.69
2023-04-19T02:06:31.948Z,100420.56
2023-04-19T02:08:58.825Z,100416.25
2023-04-19T02:11:25.445Z,100410.94
2023-04-19T02:13:52.055Z,100415.34
2023-04-19T02:16:18.675Z,100410.09
2023-04-19T02:18:46.946Z,100401.22
2023-04-19T02:21:13.722Z,100403.88
2023-04-19T02:23:40.367Z,100400.44
2023-04-19T02:26:07.009Z,100395.16
2023-04-19T02:28:33.652Z,100396.87
2023-04-19T02:31:04.321Z,100394.28
2023-04-19T02:33:30.925Z,100402.22
2023-04-19T02:35:57.538Z,100396.94
2023-04-19T02:38:24.149Z,100395.22
2023-04-19T02:40:50.766Z,100392.63
2023-04-19T02:43:17.378Z,100388.19
2023-04-19T02:45:44.034Z,100386.44
2023-04-19T02:48:10.672Z,100385.63
2023-04-19T02:50:38.263Z,100382.13
2023-04-19T02:53:04.808Z,100385.63
2023-04-19T02:55:31.424Z,100375.97
2023-04-19T02:57:57.993Z,100373.31
2023-04-19T03:00:24.569Z,100366.25
2023-04-19T03:02:51.293Z,100365.38
2023-04-19T03:05:18.204Z,100357.44
2023-04-19T03:07:44.862Z,100360.97
2023-04-19T03:10:11.547Z,100361.81
2023-04-19T03:12:38.138Z,100361.88
2023-04-19T03:15:05.215Z,100355.75
2023-04-19T03:17:31.994Z,100354.00
2023-04-19T03:19:59.038Z,100346.94
2023-04-19T03:22:25.705Z,100350.50
2023-04-19T03:24:52.361Z,100348.78
2023-04-19T03:27:18.977Z,100348.78
2023-04-19T03:29:47.293Z,100340.78
2023-04-19T03:32:15.643Z,100344.34
2023-04-19T03:34:42.545Z,100340.91
2023-04-19T03:37:09.143Z,100332.97
2023-04-19T03:39:35.840Z,100337.41
2023-04-19T03:42:03.008Z,100340.06
2023-04-19T03:44:32.470Z,100346.28
2023-04-19T03:46:59.566Z,100340.09
2023-04-19T03:49:26.211Z,100338.34
2023-04-19T03:51:52.855Z,100335.75
2023-04-19T03:54:19.475Z,100344.53
2023-04-19T03:56:46.133Z,100342.81
2023-04-19T03:59:12.757Z,100348.09
2023-04-19T04:01:42.138Z,100344.59
2023-04-19T04:04:09.493Z,100345.53
2023-04-19T04:06:36.296Z,100335.87
2023-04-19T04:09:02.959Z,100330.59
2023-04-19T04:11:29.576Z,100345.53
2023-04-19T04:13:56.353Z,100336.75
2023-04-19T04:16:23.015Z,100335.87
2023-04-19T04:18:49.745Z,100340.28
2023-04-19T04:21:16.328Z,100330.59
2023-04-19T04:23:43.265Z,100335.00
2023-04-19T04:26:10.082Z,100335.87
2023-04-19T04:28:36.699Z,100335.87
2023-04-19T04:31:03.355Z,100333.25
2023-04-19T04:33:30.574Z,100340.28
2023-04-19T04:35:59.161Z,100336.78
2023-04-19T04:38:25.884Z,100335.94
2023-04-19T04:40:55.741Z,100330.72
2023-04-19T04:43:25.999Z,100328.06
2023-04-19T04:45:55.570Z,100332.53
2023-04-19T04:48:22.402Z,100337.81
2023-04-19T04:50:49.016Z,100334.28
2023-04-19T04:53:15.709Z,100340.44
2023-04-19T04:55:42.352Z,100341.34
2023-04-19T04:58:09.045Z,100340.44
2023-04-19T05:00:35.926Z,100332.41
2023-04-19T05:03:03.149Z,100330.44
2023-04-19T05:05:30.038Z,100336.28
2023-04-19T05:07:56.611Z,100335.06
2023-04-19T05:10:23.323Z,100325.81
2023-04-19T05:12:49.963Z,100331.59
2023-04-19T05:15:16.736Z,100330.25
2023-04-19T05:17:43.504Z,100324.34
2023-04-19T05:20:10.649Z,100323.47
2023-04-19T05:22:37.686Z,100327.09
2023-04-19T05:25:04.777Z,100327.31
2023-04-19T05:27:31.560Z,100324.91
2023-04-19T05:29:58.145Z,100326.22
2023-04-19T05:32:24.808Z,100323.31
2023-04-19T05:34:51.433Z,100325.81
2023-04-19T05:37:18.072Z,100319.44
2023-04-19T05:39:45.022Z,100325.44
2023-04-19T05:42:11.717Z,100324.50
2023-04-19T05:44:40.608Z,100321.00
2023-04-19T05:47:07.211Z,100329.81
2023-04-19T05:49:33.770Z,100317.28
2023-04-19T05:52:00.389Z,100322.50
2023-04-19T05:54:28.093Z,100323.09
2023-04-19T05:56:54.829Z,100319.38
2023-04-19T05:59:21.517Z,100320.91
2023-04-19T06:01:48.211Z,100316.25
2023-04-19T06:04:15.234Z,100324.91
2023-04-19T06:06:42.293Z,100315.03
2023-04-19T06:09:08.890Z,100319.28
2023-04-19T06:11:47.050Z,100314.72
2023-04-19T06:14:16.823Z,100312.88
2023-04-19T06:16:43.596Z,100318.00
2023-04-19T06:19:10.321Z,100314.03
2023-04-19T06:21:37.130Z,100313.72
2023-04-19T06:24:04.048Z,100310.00
2023-04-19T06:26:30.657Z,100300.19
2023-04-19T06:28:57.245Z,100305.34
2023-04-19T06:31:23.973Z,100313.16
2023-04-19T06:33:50.899Z,100304.25
2023-04-19T06:36:17.854Z,100300.75
2023-04-19T06:38:47.342Z,100301.81
2023-04-19T06:41:14.027Z,100304.66
2023-04-19T06:43:40.887Z,100303.91
2023-04-19T06:46:07.950Z,100297.75
2023-04-19T06:48:35.028Z,100296.94
2023-04-19T06:51:01.784Z,100300.41
2023-04-19T06:53:28.416Z,100292.28
2023-04-19T06:56:00.007Z,100286.84
2023-04-19T06:58:27.359Z,100291.78
2023-04-19T07:00:54.231Z,100293.16
2023-04-19T07:03:21.494Z,100286.78
2023-04-19T07:05:48.600Z,100287.63
2023-04-19T07:08:15.832Z,100281.37
2023-04-19T07:10:43.893Z,100279.81
2023-04-19T07:13:13.530Z,100279.03
2023-04-19T07:15:40.261Z,100272.88
2023-04-19T07:18:07.167Z,100275.63
2023-04-19T07:20:34.266Z,100276.72
2023-04-19T07:23:00.997Z,100271.41
2023-04-19T07:25:27.648Z,100269.59
2023-04-19T07:27:54.933Z,100270.59
2023-04-19T07:30:21.642Z,100274.06
2023-04-19T07:32:48.496Z,100265.47
2023-04-19T07:35:15.747Z,100264.63
2023-04-19T07:37:42.699Z,100266.47
2023-04-19T07:40:09.960Z,100258.44
2023-04-19T07:42:36.600Z,100266.56
2023-04-19T07:45:03.589Z,100259.38
2023-04-19T07:47:31.395Z,100256.72
2023-04-19T07:49:58.062Z,100253.19
2023-04-19T07:52:24.776Z,100252.34
2023-04-19T07:54:51.429Z,100260.41
2023-04-19T07:57:21.065Z,100255.28
2023-04-19T07:59:47.718Z,100256.25
2023-04-19T08:02:16.508Z,100254.66
2023-04-19T08:04:43.390Z,100259.25
2023-04-19T08:07:10.286Z,100253.87
2023-04-19T08:09:37.901Z,100253.87
2023-04-19T08:12:04.710Z,100256.63
2023-04-19T08:14:40.560Z,100247.09
2023-04-19T08:19:46.261Z,100252.62
2023-04-19T08:22:12.951Z,100252.62
2023-04-19T08:24:39.543Z,100254.56
2023-04-19T08:27:06.253Z,100254.56
2023-04-19T08:29:33.738Z,100247.63
2023-04-19T08:32:01.769Z,100246.84
2023-04-19T08:34:28.804Z,100245.94
2023-04-19T08:37:03.587Z,100244.25
2023-04-19T08:39:34.785Z,100241.53
2023-04-19T08:42:18.307Z,100240.75
2023-04-19T08:45:19.113Z,100243.56
2023-04-19T08:47:56.105Z,100241.75
2023-04-19T08:50:33.616Z,100244.59
2023-04-19T08:53:16.116Z,100241.06
2023-04-19T08:56:03.477Z,100235.16
2023-04-19T09:01:07.243Z,100225.53
2023-04-19T09:03:44.022Z,100233.16
2023-04-19T09:06:18.181Z,100235.59
2023-04-19T09:08:45.108Z,100225.31
2023-04-19T09:11:11.908Z,100222.78
2023-04-19T09:13:40.702Z,100227.19
2023-04-19T09:16:10.258Z,100227.81
2023-04-19T09:19:02.328Z,100225.78
2023-04-19T09:21:35.819Z,100222.69
2023-04-19T09:24:03.715Z,100228.91
2023-04-19T09:26:30.595Z,100227.37
2023-04-19T09:29:04.590Z,100227.66
2023-04-19T09:31:50.801Z,100224.78
2023-04-19T09:34:22.793Z,100219.56
2023-04-19T09:36:54.617Z,100220.41
2023-04-19T09:39:33.938Z,100217.38
2023-04-19T09:42:01.920Z,100209.81
2023-04-19T09:46:58.263Z,100215.12
2023-04-19T09:49:41.195Z,100215.06
2023-04-19T09:52:13.438Z,100209.78
2023-04-19T09:54:40.051Z,100215.94
2023-04-19T09:57:07.046Z,100211.31
2023-04-19T09:59:33.696Z,100206.87
2023-04-19T10:02:00.738Z,100210.03
2023-04-19T10:04:38.382Z,100206.37
2023-04-19T10:09:53.110Z,100200.53
2023-04-19T10:12:48.171Z,100193.34
2023-04-19T10:15:09.599Z,100203.81
2023-04-19T10:17:36.278Z,100192.25
2023-04-19T10:20:08.303Z,100193.97
2023-04-19T10:22:40.797Z,100190.44
2023-04-19T10:25:16.933Z,100186.84
2023-04-19T10:27:51.390Z,100182.38
2023-04-19T10:30:24.930Z,100184.97
2023-04-19T10:32:54.051Z,100182.38
2023-04-19T10:35:41.945Z,100187.78
2023-04-19T10:38:16.487Z,100174.59
2023-04-19T10:40:56.168Z,100189.59
2023-04-19T10:43:29.713Z,100181.78
2023-04-19T10:46:09.812Z,100185.63
2023-04-19T10:48:38.853Z,100181.44
2023-04-19T10:51:21.474Z,100180.72
2023-04-19T10:53:54.221Z,100188.69
2023-04-19T10:57:00.716Z,100184.94
2023-04-19T10:59:29.176Z,100191.09
2023-04-19T11:01:57.413Z,100188.69
2023-04-19T11:04:31.269Z,100184.69
2023-04-19T11:07:04.621Z,100185.78
2023-04-19T11:09:37.896Z,100181.66
2023-04-19T11:12:10.822Z,100183.63
2023-04-19T11:14:45.302Z,100180.34
2023-04-19T11:17:28.544Z,100173.72
2023-04-19T11:20:02.740Z,100171.41
2023-04-19T11:22:36.876Z,100172.59
2023-04-19T11:25:07.658Z,100173.69
2023-04-19T11:27:34.758Z,100172.03
2023-04-19T11:30:10.455Z,100169.94
2023-04-19T11:32:37.207Z,100169.94
2023-04-19T11:35:08.834Z,100170.09
2023-04-19T11:37:36.577Z,100163.84
2023-04-19T11:40:05.406Z,100168.38
2023-04-19T11:42:32.580Z,100169.37
2023-04-19T11:44:59.934Z,100176.56
2023-04-19T11:47:27.687Z,100173.28
2023-04-19T11:49:57.775Z,100164.53
2023-04-19T11:52:25.449Z,100170.78
2023-04-19T11:54:55.475Z,100176.00
2023-04-19T11:57:31.906Z,100166.50
2023-04-19T12:00:12.190Z,100159.69
2023-04-19T12:02:40.261Z,100158.22
2023-04-19T12:05:14.465Z,100155.75
2023-04-19T12:08:04.080Z,100163.00
2023-04-19T12:10:31.837Z,100169.37
2023-04-19T12:12:59.059Z,100160.81
2023-04-19T12:15:44.674Z,100157.44
2023-04-19T12:18:11.733Z,100151.28
2023-04-19T12:20:48.992Z,100157.62
2023-04-19T12:23:16.212Z,100163.53
2023-04-19T12:25:44.059Z,100158.06
2023-04-19T12:28:10.764Z,100156.34
2023-04-19T12:30:39.982Z,100162.53
2023-04-19T12:33:07.243Z,100141.44
2023-04-19T12:35:34.178Z,100152.16
2023-04-19T12:38:00.936Z,100149.66
2023-04-19T12:40:27.617Z,100146.22
2023-04-19T12:42:54.229Z,100150.75
2023-04-19T12:45:21.021Z,100145.69
2023-04-19T12:47:48.099Z,100152.78
2023-04-19T12:50:15.444Z,100151.03
2023-04-19T12:52:42.470Z,100156.34
2023-04-19T12:55:09.407Z,100150.28
2023-04-19T12:57:36.125Z,100147.72
2023-04-19T13:00:03.957Z,100142.41
2023-04-19T13:02:30.878Z,100149.34
2023-04-19T13:04:57.706Z,100143.94
2023-04-19T13:07:24.383Z,100147.53
2023-04-19T13:09:50.978Z,100151.03
2023-04-19T13:12:17.613Z,100144.75
2023-04-19T13:14:46.243Z,100137.31
2023-04-19T13:17:12.836Z,100147.78
2023-04-19T13:19:39.451Z,100147.78
2023-04-19T13:22:06.269Z,100147.62
2023-04-19T13:24:32.862Z,100155.37
2023-04-19T13:26:59.505Z,100141.87
2023-04-19T13:29:26.124Z,100143.34
2023-04-19T13:31:52.900Z,100144.72
2023-04-19T13:34:19.672Z,100137.56
2023-04-19T13:36:46.305Z,100132.31
2023-04-19T13:39:12.961Z,100135.91
2023-04-19T13:41:39.551Z,100141.38
2023-04-19T13:44:06.155Z,100136.25
2023-04-19T13:46:33.621Z,100136.28
2023-04-19T13:49:00.289Z,100131.09
2023-04-19T13:51:33.187Z,100139.97
2023-04-19T13:54:05.811Z,100133.72
2023-04-19T13:56:32.486Z,100127.66
2023-04-19T13:58:59.109Z,100133.91
2023-04-19T14:01:25.759Z,100123.34
2023-04-19T14:03:52.709Z,100125.06
2023-04-19T14:06:19.635Z,100124.31
2023-04-19T14:08:46.259Z,100126.09
2023-04-19T14:11:12.848Z,100131.50
2023-04-19T14:13:39.447Z,100128.91
2023-04-19T14:16:06.764Z,100126.34
2023-04-19T14:18:33.489Z,100126.44
2023-04-19T14:21:00.598Z,100124.00
2023-04-19T14:23:27.306Z,100119.69
2023-04-19T14:25:53.920Z,100131.34
2023-04-19T14:28:21.085Z,100127.81
2023-04-19T14:30:47.676Z,100120.88
2023-04-19T14:33:14.392Z,100128.03
2023-04-19T14:35:41.354Z,100120.16
2023-04-19T14:38:07.978Z,100128.94
2023-04-19T14:40:34.637Z,100134.22
2023-04-19T14:43:01.388Z,100127.03
2023-04-19T14:45:28.187Z,100124.28
2023-04-19T14:47:54.893Z,100129.47
2023-04-19T14:50:21.894Z,100132.03
2023-04-19T14:52:48.503Z,100130.16
2023-04-19T14:55:15.106Z,100138.75
2023-04-19T14:57:41.681Z,100140.38
2023-04-19T15:00:09.096Z,100132.25
2023-04-19T15:02:36.086Z,100132.88
2023-04-19T15:05:03.124Z,100138.81
2023-04-19T15:07:30.094Z,100135.91
2023-04-19T15:09:56.827Z,100138.47
2023-04-19T15:12:23.421Z,100147.22
2023-04-19T15:14:50.002Z,100148.00
2023-04-19T15:17:16.837Z,100155.00
2023-04-19T15:19:45.625Z,100154.09
2023-04-19T15:22:12.312Z,100153.25
2023-04-19T15:24:38.924Z,100148.84
2023-04-19T15:27:05.597Z,100153.25
2023-04-19T15:29:32.256Z,100162.06
2023-04-19T15:31:58.849Z,100160.31
2023-04-19T15:34:25.566Z,100168.34
2023-04-19T15:36:52.138Z,100164.84
2023-04-19T15:39:18.786Z,100165.69
2023-04-19T15:41:45.372Z,100161.44
2023-04-19T15:44:12.084Z,100170.31
2023-04-19T15:46:38.663Z,100174.84
2023-04-19T15:49:06.041Z,100186.31
2023-04-19T15:51:32.693Z,100183.75
2023-04-19T15:53:59.294Z,100189.09
2023-04-19T15:56:25.896Z,100187.41
2023-04-19T15:58:52.562Z,100189.19
2023-04-19T16:01:19.436Z,100186.69
2023-04-19T16:03:46.265Z,100191.12
2023-04-19T16:06:13.775Z,100198.25
2023-04-19T16:08:40.538Z,100197.38
2023-04-19T16:11:07.121Z,100195.75
2023-04-19T16:13:33.772Z,100200.22
2023-04-19T16:16:01.477Z,100200.25
2023-04-19T16:18:28.329Z,100198.56
2023-04-19T16:20:54.978Z,100196.91
2023-04-19T16:23:22.379Z,100197.84
2023-04-19T16:25:49.014Z,100197.06
2023-04-19T16:28:15.690Z,100196.22
2023-04-19T16:30:42.368Z,100198.94
2023-04-19T16:33:09.149Z,100198.06
2023-04-19T16:35:35.965Z,100201.66
2023-04-19T16:38:04.481Z,100198.16
2023-04-19T16:40:31.074Z,100210.66
2023-04-19T16:42:57.829Z,100200.97
2023-04-19T16:45:24.486Z,100204.53
2023-04-19T16:47:51.715Z,100210.69
2023-04-19T16:50:19.100Z,100205.50
2023-04-19T16:52:45.850Z,100206.44
2023-04-19T16:55:12.500Z,100214.38
2023-04-19T16:57:39.102Z,100208.28
2023-04-19T17:00:06.744Z,100218.03
2023-04-19T17:02:33.502Z,100214.53
2023-04-19T17:05:00.622Z,100217.25
2023-04-19T17:07:27.325Z,100222.56
2023-04-19T17:09:55.217Z,100224.34
2023-04-19T17:12:22.103Z,100227.91
2023-04-19T17:14:48.781Z,100232.38
2023-04-19T17:17:15.600Z,100230.66
2023-04-19T17:19:42.196Z,100227.16
2023-04-19T17:22:08.792Z,100233.41
2023-04-19T17:24:35.471Z,100227.22
2023-04-19T17:27:02.556Z,100229.88
2023-04-19T17:29:29.289Z,100235.25
2023-04-19T17:31:56.513Z,100237.88
2023-04-19T17:34:23.254Z,100238.84
2023-04-19T17:36:49.890Z,100249.44
2023-04-19T17:39:16.750Z,100246.87
2023-04-19T17:41:44.764Z,100245.16
2023-04-19T17:44:12.186Z,100254.00
2023-04-19T17:46:39.914Z,100258.47
2023-04-19T17:49:06.568Z,100265.56
2023-04-19T17:51:33.371Z,100264.69
2023-04-19T17:53:59.965Z,100267.44
2023-04-19T17:56:26.901Z,100271.00
2023-04-19T17:58:53.602Z,100274.53
2023-04-19T18:01:20.829Z,100278.09
2023-04-19T18:03:47.653Z,100278.19
2023-04-19T18:06:16.329Z,100295.88
2023-04-19T18:08:46.388Z,100295.88
2023-04-19T18:11:13.162Z,100293.22
2023-04-19T18:13:39.825Z,100294.16
2023-04-19T18:16:06.521Z,100292.41
2023-04-19T18:18:33.461Z,100303.00
2023-04-19T18:21:04.416Z,100304.81
2023-04-19T18:23:31.185Z,100317.22
2023-04-19T18:26:01.532Z,100316.34
2023-04-19T18:28:28.777Z,100319.09
2023-04-19T18:30:55.510Z,100315.56
2023-04-19T18:33:22.172Z,100325.31
2023-04-19T18:35:48.995Z,100319.16
2023-04-19T18:38:15.996Z,100331.53
2023-04-19T18:40:42.599Z,100329.78
2023-04-19T18:43:09.254Z,100325.41
2023-04-19T18:45:36.285Z,100334.22
2023-04-19T18:48:03.573Z,100334.31
2023-04-19T18:50:30.879Z,100336.09
2023-04-19T18:52:57.931Z,100330.84
2023-04-19T18:55:24.758Z,100333.50
2023-04-19T18:57:51.452Z,100340.59
2023-04-19T19:00:19.898Z,100338.03
2023-04-19T19:02:46.953Z,100340.66
2023-04-19T19:05:15.920Z,100336.31
2023-04-19T19:07:43.083Z,100346.91
2023-04-19T19:10:19.508Z,100346.09
2023-04-19T19:12:49.129Z,100351.41
2023-04-19T19:15:15.906Z,100358.50
2023-04-19T19:17:43.639Z,100355.06
2023-04-19T19:20:10.759Z,100351.56
2023-04-19T19:22:37.673Z,100356.84
2023-04-19T19:25:06.855Z,100365.72
2023-04-19T19:27:33.518Z,100355.13
2023-04-19T19:30:01.177Z,100359.56
2023-04-19T19:32:28.306Z,100361.34
2023-04-19T19:35:00.898Z,100360.56
2023-04-19T19:37:29.962Z,100360.56
2023-04-19T19:39:56.959Z,100365.91
2023-04-19T19:42:23.946Z,100366.81
2023-04-19T19:44:55.002Z,100364.22
2023-04-19T19:47:22.725Z,100361.63
2023-04-19T19:50:31.414Z,100373.09
2023-04-19T19:52:36.382Z,100363.44
2023-04-19T19:55:03.022Z,100373.16
2023-04-19T19:58:16.442Z,100378.47
2023-04-19T20:00:42.005Z,100371.41
2023-04-19T20:03:06.514Z,100371.41
2023-04-19T20:05:33.761Z,100375.87
2023-04-19T20:08:09.703Z,100374.16
2023-04-19T20:10:37.337Z,100367.06
2023-04-19T20:13:06.701Z,100373.38
2023-04-19T20:15:34.521Z,100370.72
2023-04-19T20:18:01.281Z,100366.28
2023-04-19T20:20:28.000Z,100372.53
2023-04-19T20:22:54.790Z,100376.06
2023-04-19T20:25:21.616Z,100377.00
2023-04-19T20:27:48.208Z,100374.34
2023-04-19T20:30:14.823Z,100382.31
2023-04-19T20:32:42.782Z,100378.78
2023-04-19T20:35:12.273Z,100381.53
2023-04-19T20:37:42.043Z,100389.37
2023-04-19T20:40:13.739Z,100379.81
2023-04-19T20:42:41.020Z,100390.41
2023-04-19T20:45:09.984Z,100392.13
2023-04-19T20:47:39.977Z,100398.34
2023-04-19T20:50:07.943Z,100391.31
2023-04-19T20:52:34.921Z,100390.44
2023-04-19T20:55:01.591Z,100395.75
2023-04-19T20:57:28.234Z,100385.22
2023-04-19T20:59:54.993Z,100396.69
2023-04-19T21:02:21.776Z,100400.25
2023-04-19T21:04:50.473Z,100399.41
2023-04-19T21:07:17.095Z,100391.47
2023-04-19T21:09:43.694Z,100396.75
2023-04-19T21:12:10.532Z,100389.72
2023-04-19T21:14:37.243Z,100397.63
2023-04-19T21:17:04.017Z,100404.72
2023-04-19T21:19:30.809Z,100394.13
2023-04-19T21:21:58.205Z,100402.06
2023-04-19T21:24:24.897Z,100399.44
2023-04-19T21:26:51.469Z,100411.78
2023-04-19T21:29:18.220Z,100405.59
2023-04-19T21:31:45.149Z,100402.09
2023-04-19T21:34:11.859Z,100403.03
2023-04-19T21:36:38.615Z,100398.59
2023-04-19T21:39:05.435Z,100400.38
2023-04-19T21:41:32.086Z,100398.69
2023-04-19T21:43:58.829Z,100407.47
2023-04-19T21:46:25.523Z,100400.47
2023-04-19T21:48:54.264Z,100405.75
2023-04-19T21:51:22.205Z,100400.47
2023-04-19T21:53:48.842Z,100404.06
2023-04-19T21:56:15.481Z,100408.50
2023-04-19T21:58:42.085Z,100406.75
2023-04-19T22:01:08.753Z,100410.25
2023-04-19T22:03:35.538Z,100403.22
2023-04-19T22:06:02.619Z,100414.75
2023-04-19T22:08:31.546Z,100407.69
2023-04-19T22:11:00.338Z,100406.81
2023-04-19T22:13:28.432Z,100416.56
2023-04-19T22:15:57.111Z,100407.75
2023-04-19T22:18:24.117Z,100410.44
2023-04-19T22:20:52.127Z,100407.88
2023-04-19T22:23:18.907Z,100415.81
2023-04-19T22:25:46.019Z,100423.75
2023-04-19T22:28:12.681Z,100428.28
2023-04-19T22:30:39.278Z,100424.69
2023-04-19T22:33:06.196Z,100429.06
2023-04-19T22:35:32.856Z,100437.06
2023-04-19T22:37:59.464Z,100442.41
2023-04-19T22:40:26.141Z,100434.47
2023-04-19T22:42:52.756Z,100441.56
2023-04-19T22:45:19.405Z,100439.78
2023-04-19T22:47:46.133Z,100431.03
2023-04-19T22:50:12.897Z,100424.03
2023-04-19T22:52:40.917Z,100431.13
2023-04-19T22:55:07.905Z,100433.75
2023-04-19T22:57:34.549Z,100432.91
2023-04-19T23:00:01.155Z,100427.63
2023-04-19T23:02:27.896Z,100438.19
2023-04-19T23:04:54.702Z,100434.66
2023-04-19T23:07:22.003Z,100435.59
2023-04-19T23:09:49.774Z,100436.53
2023-04-19T23:12:17.438Z,100441.81
2023-04-19T23:14:44.116Z,100448.91
2023-04-19T23:17:10.826Z,100441.91
2023-04-19T23:19:38.737Z,100441.03
2023-04-19T23:22:05.353Z,100434.91
2023-04-19T23:24:31.933Z,100434.00
2023-04-19T23:26:58.531Z,100434.94
2023-04-19T23:29:25.125Z,100434.06
2023-04-19T23:31:51.792Z,100435.88
2023-04-19T23:34:18.742Z,100433.28
2023-04-19T23:36:45.512Z,100438.59
2023-04-19T23:39:12.258Z,100433.28
2023-04-19T23:41:38.912Z,100437.72
2023-04-19T23:44:05.643Z,100438.62
2023-04-19T23:46:32.333Z,100441.28
2023-04-19T23:48:58.927Z,100441.28
2023-04-19T23:51:25.496Z,100436.06
2023-04-19T23:53:52.139Z,100435.19
2023-04-19T23:56:19.361Z,100437.84
2023-04-19T23:58:45.993Z,100437.84
